Pittsburgh, PA (15221)

1:24 AM EDT on August 20, 2014 (GMT -0400)
Churchill | Change Station
CLOSE
Current Station
Personal Weather Station
Location: Pittsburgh, PA
Elevation: 1175 ft
Nearby Weather Stations

Elev 1175 ft 40.43 °N, 79.85 °W | Updated 29 seconds ago

Haze
Haze
69.3 °F
Feels Like 69.3 °F
N
0.0
Wind Variable Wind from SW

Today
High -- | Low -- °F
--% Chance of Precip.
Yesterday
High -- | Low -- °F
Precip. -- in
6:35 AM 8:09 PM
Waning Crescent, 24% visible
Pressure 29.88 in
Visibility 6.0 miles
Clouds Few 4300 ft
Dew Point 64 °F
Humidity 82%
Rainfall 0.00 in
Snow Depth Not available.
UV 0 out of 12
Pollen 9.10 out of 12
Ozone Good
PM2.5 Moderate
Flu Activity Not available.
METAR KAGC 200453Z 17005KT 6SM HZ FEW043 21/18 A2990 RMK AO2 SLP119 T02110183 402940189

More Conditions Fewer Conditions

Pressure 29.88 in
Visibility 6.0 miles
Clouds Few 4300 ft
Dew Point 64 °F
Humidity 82%
Rainfall 0.00 in
Snow Depth Not available.
UV 0 out of 12
Pollen 9.10 out of 12
Ozone Good
PM2.5 Moderate
Flu Activity Not available.
METAR KAGC 200453Z 17005KT 6SM HZ FEW043 21/18 A2990 RMK AO2 SLP119 T02110183 402940189

More Conditions Fewer Conditions

10-Day Weather Forecast

Almanac

Astronomy

Aug. 20, 2014 Rise Set
Actual Time 6:35 AM EDT 8:09 PM EDT
Civil Twilight 6:06 AM EDT 8:38 PM EDT
Nautical Twilight 5:31 AM EDT 9:13 PM EDT
Astronomical Twilight 4:54 AM EDT 9:50 PM EDT
Moon 2:13 AM EDT 4:53 PM EDT
Length of Visible Light 14h 32m
Length of Day
13h 34m
Tomorrow will be 2m 26s shorter.
Waning Crescent, 24% of the Moon is Illuminated
Today
Waning Crescent
Aug 25
New
Sep 2
First Quarter
Sep 8
Full
Sep 15
Last Quarter

Today's Extremes

State Highs State Lows

Community

WunderPhotos

Upload Photos

1,745,592 photos uploaded!

Nearby

Air Quality

  Air Quality AQ Index Pollutant
Yesterday Moderate
PM2.5
Yesterday Good
OZONE
Current Moderate
PM2.5
Current Good
OZONE
Tuesday Moderate
PM2.5
Tuesday Good
OZONE
Wednesday Moderate
PM2.5
Wednesday Good
OZONE
Thursday Moderate
PM2.5
Thursday Good
OZONE

Snow Depth

Station Depth Elevation
No new snow has been reported.

Earthquake Activity

City Distance Mag. Time & Date
No recent earthquake activity has been reported nearby.
Minimum magnitude displayed is 2.5.

Coastal Water Temperatures

Place Temperature
No Stations Reporting

Nearby Weather Stations